sensor_id;sensor_type;location;lat;lon;timestamp;pressure;altitude;pressure_sealevel;temperature;humidity
70815;BME280;58428;49.478;10.986;2023-07-08T00:00:40;98600.84;;;19.92;100.00
70815;BME280;58428;49.478;10.986;2023-07-08T00:03:05;98594.88;;;19.84;100.00
70815;BME280;58428;49.478;10.986;2023-07-08T00:05:31;98587.00;;;19.79;100.00
70815;BME280;58428;49.478;10.986;2023-07-08T00:07:57;98597.94;;;19.75;100.00
70815;BME280;58428;49.478;10.986;2023-07-08T00:10:27;98588.88;;;19.71;100.00
70815;BME280;58428;49.478;10.986;2023-07-08T00:12:57;98588.84;;;19.68;100.00
70815;BME280;58428;49.478;10.986;2023-07-08T00:15:29;98590.75;;;19.60;100.00
70815;BME280;58428;49.478;10.986;2023-07-08T00:17:55;98595.41;;;19.56;100.00
70815;BME280;58428;49.478;10.986;2023-07-08T00:22:57;98594.97;;;19.48;100.00
70815;BME280;58428;49.478;10.986;2023-07-08T00:25:26;98593.75;;;19.42;100.00
70815;BME280;58428;49.478;10.986;2023-07-08T00:27:51;98600.75;;;19.36;100.00
70815;BME280;58428;49.478;10.986;2023-07-08T00:32:50;98593.19;;;19.26;100.00
70815;BME280;58428;49.478;10.986;2023-07-08T00:37:54;98575.06;;;19.18;100.00
70815;BME280;58428;49.478;10.986;2023-07-08T00:40:26;98574.28;;;19.17;100.00
70815;BME280;58428;49.478;10.986;2023-07-08T00:42:53;98582.47;;;19.14;100.00
70815;BME280;58428;49.478;10.986;2023-07-08T00:45:32;98585.25;;;19.17;100.00
70815;BME280;58428;49.478;10.986;2023-07-08T00:48:53;98583.75;;;19.20;100.00
70815;BME280;58428;49.478;10.986;2023-07-08T00:50:55;98588.78;;;19.18;100.00
70815;BME280;58428;49.478;10.986;2023-07-08T00:53:30;98593.84;;;19.13;100.00
70815;BME280;58428;49.478;10.986;2023-07-08T00:56:24;98598.09;;;19.10;100.00
70815;BME280;58428;49.478;10.986;2023-07-08T00:59:02;98592.56;;;19.03;100.00
70815;BME280;58428;49.478;10.986;2023-07-08T01:01:33;98602.31;;;18.97;100.00
70815;BME280;58428;49.478;10.986;2023-07-08T01:04:15;98601.03;;;18.91;100.00
70815;BME280;58428;49.478;10.986;2023-07-08T01:06:46;98595.13;;;18.89;100.00
70815;BME280;58428;49.478;10.986;2023-07-08T01:09:14;98583.81;;;18.94;100.00
70815;BME280;58428;49.478;10.986;2023-07-08T01:11:43;98584.94;;;18.90;100.00
70815;BME280;58428;49.478;10.986;2023-07-08T01:14:12;98584.94;;;18.90;100.00
70815;BME280;58428;49.478;10.986;2023-07-08T01:16:39;98577.84;;;18.85;100.00
70815;BME280;58428;49.478;10.986;2023-07-08T01:19:06;98575.06;;;18.82;100.00
70815;BME280;58428;49.478;10.986;2023-07-08T01:21:45;98578.13;;;18.77;100.00
70815;BME280;58428;49.478;10.986;2023-07-08T01:24:11;98572.69;;;18.80;100.00
70815;BME280;58428;49.478;10.986;2023-07-08T01:26:42;98579.22;;;18.69;100.00
70815;BME280;58428;49.478;10.986;2023-07-08T01:29:10;98574.03;;;18.61;100.00
70815;BME280;58428;49.478;10.986;2023-07-08T01:31:36;98574.34;;;18.52;100.00
70815;BME280;58428;49.478;10.986;2023-07-08T01:34:02;98585.91;;;18.42;100.00
70815;BME280;58428;49.478;10.986;2023-07-08T01:36:37;98583.84;;;18.33;100.00
70815;BME280;58428;49.478;10.986;2023-07-08T01:39:04;98572.38;;;18.24;100.00
70815;BME280;58428;49.478;10.986;2023-07-08T01:41:29;98579.78;;;18.20;100.00
70815;BME280;58428;49.478;10.986;2023-07-08T01:43:58;98587.50;;;18.14;100.00
70815;BME280;58428;49.478;10.986;2023-07-08T01:46:25;98581.25;;;18.14;100.00
70815;BME280;58428;49.478;10.986;2023-07-08T01:48:56;98580.84;;;18.12;100.00
70815;BME280;58428;49.478;10.986;2023-07-08T01:51:26;98581.19;;;18.10;100.00
70815;BME280;58428;49.478;10.986;2023-07-08T01:53:53;98587.41;;;18.07;100.00
70815;BME280;58428;49.478;10.986;2023-07-08T01:56:21;98585.03;;;18.06;100.00
70815;BME280;58428;49.478;10.986;2023-07-08T01:58:49;98585.69;;;18.00;100.00
70815;BME280;58428;49.478;10.986;2023-07-08T02:01:15;98584.06;;;17.95;100.00
70815;BME280;58428;49.478;10.986;2023-07-08T02:03:41;98580.50;;;17.91;100.00
70815;BME280;58428;49.478;10.986;2023-07-08T02:06:08;98587.88;;;17.87;100.00
70815;BME280;58428;49.478;10.986;2023-07-08T02:08:33;98592.84;;;17.82;100.00
70815;BME280;58428;49.478;10.986;2023-07-08T02:10:59;98592.44;;;17.80;100.00
70815;BME280;58428;49.478;10.986;2023-07-08T02:13:25;98600.22;;;17.78;100.00
70815;BME280;58428;49.478;10.986;2023-07-08T02:15:51;98599.81;;;17.76;100.00
70815;BME280;58428;49.478;10.986;2023-07-08T02:18:18;98596.66;;;17.74;100.00
70815;BME280;58428;49.478;10.986;2023-07-08T02:20:45;98595.09;;;17.73;100.00
70815;BME280;58428;49.478;10.986;2023-07-08T02:23:13;98599.81;;;17.76;100.00
70815;BME280;58428;49.478;10.986;2023-07-08T02:28:06;98590.03;;;17.75;100.00
70815;BME280;58428;49.478;10.986;2023-07-08T02:30:32;98592.59;;;17.65;100.00
70815;BME280;58428;49.478;10.986;2023-07-08T02:33:00;98589.78;;;17.61;100.00
70815;BME280;58428;49.478;10.986;2023-07-08T02:35:30;98595.94;;;17.55;100.00
70815;BME280;58428;49.478;10.986;2023-07-08T02:37:58;98589.19;;;17.49;100.00
70815;BME280;58428;49.478;10.986;2023-07-08T02:40:24;98595.03;;;17.47;100.00
70815;BME280;58428;49.478;10.986;2023-07-08T02:42:50;98587.94;;;17.43;100.00
70815;BME280;58428;49.478;10.986;2023-07-08T02:45:16;98594.84;;;17.37;100.00
70815;BME280;58428;49.478;10.986;2023-07-08T02:47:42;98595.53;;;17.31;100.00
70815;BME280;58428;49.478;10.986;2023-07-08T02:50:09;98602.47;;;17.25;100.00
70815;BME280;58428;49.478;10.986;2023-07-08T02:52:35;98605.31;;;17.13;100.00
70815;BME280;58428;49.478;10.986;2023-07-08T02:55:00;98606.47;;;17.12;100.00
70815;BME280;58428;49.478;10.986;2023-07-08T02:57:26;98600.38;;;17.18;100.00
70815;BME280;58428;49.478;10.986;2023-07-08T02:59:54;98601.44;;;17.14;100.00
70815;BME280;58428;49.478;10.986;2023-07-08T03:02:22;98603.69;;;17.08;100.00
70815;BME280;58428;49.478;10.986;2023-07-08T03:04:48;98607.50;;;17.04;100.00
70815;BME280;58428;49.478;10.986;2023-07-08T03:07:15;98610.84;;;16.94;100.00
70815;BME280;58428;49.478;10.986;2023-07-08T03:09:42;98610.47;;;16.95;100.00
70815;BME280;58428;49.478;10.986;2023-07-08T03:12:09;98621.41;;;16.95;100.00
70815;BME280;58428;49.478;10.986;2023-07-08T03:14:35;98622.56;;;16.94;100.00
70815;BME280;58428;49.478;10.986;2023-07-08T03:17:01;98612.28;;;16.88;100.00
70815;BME280;58428;49.478;10.986;2023-07-08T03:19:28;98622.78;;;16.86;100.00
70815;BME280;58428;49.478;10.986;2023-07-08T03:21:54;98625.13;;;16.88;100.00
70815;BME280;58428;49.478;10.986;2023-07-08T03:24:20;98631.28;;;16.81;100.00
70815;BME280;58428;49.478;10.986;2023-07-08T03:26:47;98628.47;;;16.78;100.00
70815;BME280;58428;49.478;10.986;2023-07-08T03:29:17;98628.03;;;16.76;100.00
70815;BME280;58428;49.478;10.986;2023-07-08T03:31:45;98631.06;;;16.71;100.00
70815;BME280;58428;49.478;10.986;2023-07-08T03:34:12;98627.16;;;16.72;100.00
70815;BME280;58428;49.478;10.986;2023-07-08T03:36:46;98621.34;;;16.73;100.00
70815;BME280;58428;49.478;10.986;2023-07-08T03:39:18;98631.84;;;16.71;100.00
70815;BME280;58428;49.478;10.986;2023-07-08T03:41:44;98634.59;;;16.71;100.00
70815;BME280;58428;49.478;10.986;2023-07-08T03:44:10;98641.91;;;16.67;100.00
70815;BME280;58428;49.478;10.986;2023-07-08T03:46:36;98651.19;;;16.63;100.00
70815;BME280;58428;49.478;10.986;2023-07-08T03:49:01;98653.13;;;16.62;100.00
70815;BME280;58428;49.478;10.986;2023-07-08T03:51:33;98650.28;;;16.74;100.00
70815;BME280;58428;49.478;10.986;2023-07-08T03:53:59;98654.50;;;16.72;100.00
70815;BME280;58428;49.478;10.986;2023-07-08T03:56:26;98652.06;;;16.67;100.00
70815;BME280;58428;49.478;10.986;2023-07-08T03:58:52;98653.19;;;16.66;100.00
70815;BME280;58428;49.478;10.986;2023-07-08T04:01:20;98639.09;;;16.64;100.00
70815;BME280;58428;49.478;10.986;2023-07-08T04:03:47;98645.75;;;16.63;100.00
70815;BME280;58428;49.478;10.986;2023-07-08T04:06:15;98648.91;;;16.65;100.00
70815;BME280;58428;49.478;10.986;2023-07-08T04:08:41;98647.66;;;16.62;100.00
70815;BME280;58428;49.478;10.986;2023-07-08T04:11:08;98662.03;;;16.59;100.00
70815;BME280;58428;49.478;10.986;2023-07-08T04:13:33;98652.63;;;16.57;100.00
70815;BME280;58428;49.478;10.986;2023-07-08T04:16:02;98658.00;;;16.54;100.00
70815;BME280;58428;49.478;10.986;2023-07-08T04:18:29;98650.19;;;16.52;100.00
70815;BME280;58428;49.478;10.986;2023-07-08T04:20:54;98644.72;;;16.52;100.00
70815;BME280;58428;49.478;10.986;2023-07-08T04:23:22;98650.34;;;16.59;100.00
70815;BME280;58428;49.478;10.986;2023-07-08T04:25:49;98653.56;;;16.64;100.00
70815;BME280;58428;49.478;10.986;2023-07-08T04:28:16;98639.09;;;16.64;100.00
70815;BME280;58428;49.478;10.986;2023-07-08T04:30:43;98647.31;;;16.64;100.00
70815;BME280;58428;49.478;10.986;2023-07-08T04:33:13;98652.41;;;16.65;100.00
70815;BME280;58428;49.478;10.986;2023-07-08T04:35:40;98650.97;;;16.71;100.00
70815;BME280;58428;49.478;10.986;2023-07-08T04:38:17;98656.94;;;16.77;100.00
70815;BME280;58428;49.478;10.986;2023-07-08T04:40:42;98652.03;;;16.86;100.00
70815;BME280;58428;49.478;10.986;2023-07-08T04:43:09;98648.00;;;16.98;100.00
70815;BME280;58428;49.478;10.986;2023-07-08T04:45:43;98646.84;;;17.18;100.00
70815;BME280;58428;49.478;10.986;2023-07-08T04:48:13;98650.69;;;17.36;100.00
70815;BME280;58428;49.478;10.986;2023-07-08T04:50:44;98654.84;;;17.49;100.00
70815;BME280;58428;49.478;10.986;2023-07-08T04:53:10;98654.44;;;17.69;100.00
70815;BME280;58428;49.478;10.986;2023-07-08T04:55:38;98643.41;;;17.88;100.00
70815;BME280;58428;49.478;10.986;2023-07-08T04:58:04;98646.56;;;17.90;100.00
70815;BME280;58428;49.478;10.986;2023-07-08T05:00:30;98649.34;;;17.93;100.00
70815;BME280;58428;49.478;10.986;2023-07-08T05:02:55;98642.75;;;17.98;100.00
70815;BME280;58428;49.478;10.986;2023-07-08T05:05:21;98643.59;;;18.02;100.00
70815;BME280;58428;49.478;10.986;2023-07-08T05:07:47;98645.25;;;18.06;100.00
70815;BME280;58428;49.478;10.986;2023-07-08T05:10:14;98646.91;;;18.10;100.00
70815;BME280;58428;49.478;10.986;2023-07-08T05:12:41;98649.75;;;18.17;100.00
70815;BME280;58428;49.478;10.986;2023-07-08T05:15:07;98642.06;;;18.26;100.00
70815;BME280;58428;49.478;10.986;2023-07-08T05:17:32;98648.84;;;18.36;100.00
70815;BME280;58428;49.478;10.986;2023-07-08T05:19:58;98652.72;;;18.31;100.00
70815;BME280;58428;49.478;10.986;2023-07-08T05:22:27;98646.84;;;18.33;100.00
70815;BME280;58428;49.478;10.986;2023-07-08T05:24:53;98654.66;;;18.31;100.00
70815;BME280;58428;49.478;10.986;2023-07-08T05:27:22;98660.22;;;18.38;100.00
70815;BME280;58428;49.478;10.986;2023-07-08T05:29:48;98663.34;;;18.36;100.00
70815;BME280;58428;49.478;10.986;2023-07-08T05:32:16;98663.09;;;18.44;100.00
70815;BME280;58428;49.478;10.986;2023-07-08T05:34:43;98661.69;;;18.57;100.00
70815;BME280;58428;49.478;10.986;2023-07-08T05:37:11;98655.91;;;18.66;100.00
70815;BME280;58428;49.478;10.986;2023-07-08T05:39:42;98655.69;;;18.78;100.00
70815;BME280;58428;49.478;10.986;2023-07-08T05:42:07;98660.13;;;18.89;100.00
70815;BME280;58428;49.478;10.986;2023-07-08T05:44:32;98655.66;;;19.03;100.00
70815;BME280;58428;49.478;10.986;2023-07-08T05:46:58;98659.69;;;19.16;100.00
70815;BME280;58428;49.478;10.986;2023-07-08T05:49:24;98656.31;;;19.29;100.00
70815;BME280;58428;49.478;10.986;2023-07-08T05:51:51;98651.78;;;19.44;100.00
70815;BME280;58428;49.478;10.986;2023-07-08T05:54:17;98653.88;;;19.57;100.00
70815;BME280;58428;49.478;10.986;2023-07-08T05:56:44;98660.22;;;19.68;100.00
70815;BME280;58428;49.478;10.986;2023-07-08T05:59:09;98657.59;;;19.78;100.00
70815;BME280;58428;49.478;10.986;2023-07-08T06:01:35;98654.59;;;19.90;100.00
70815;BME280;58428;49.478;10.986;2023-07-08T06:04:01;98657.81;;;20.02;100.00
70815;BME280;58428;49.478;10.986;2023-07-08T06:06:27;98656.75;;;20.17;100.00
70815;BME280;58428;49.478;10.986;2023-07-08T06:08:54;98652.53;;;20.33;100.00
70815;BME280;58428;49.478;10.986;2023-07-08T06:11:21;98654.22;;;20.48;100.00
70815;BME280;58428;49.478;10.986;2023-07-08T06:13:47;98653.88;;;20.60;100.00
70815;BME280;58428;49.478;10.986;2023-07-08T06:16:13;98660.22;;;20.71;100.00
70815;BME280;58428;49.478;10.986;2023-07-08T06:18:38;98650.88;;;20.82;100.00
70815;BME280;58428;49.478;10.986;2023-07-08T06:21:05;98650.53;;;20.94;100.00
70815;BME280;58428;49.478;10.986;2023-07-08T06:23:31;98643.88;;;21.05;100.00
70815;BME280;58428;49.478;10.986;2023-07-08T06:25:57;98645.50;;;21.17;100.00
70815;BME280;58428;49.478;10.986;2023-07-08T06:28:23;98645.53;;;21.27;100.00
70815;BME280;58428;49.478;10.986;2023-07-08T06:30:50;98647.13;;;21.35;100.00
70815;BME280;58428;49.478;10.986;2023-07-08T06:33:18;98643.22;;;21.46;100.00
70815;BME280;58428;49.478;10.986;2023-07-08T06:35:45;98644.44;;;21.56;100.00
70815;BME280;58428;49.478;10.986;2023-07-08T06:38:12;98648.78;;;21.67;100.00
70815;BME280;58428;49.478;10.986;2023-07-08T06:40:40;98651.94;;;21.79;100.00
70815;BME280;58428;49.478;10.986;2023-07-08T06:43:05;98651.94;;;21.90;100.00
70815;BME280;58428;49.478;10.986;2023-07-08T06:45:31;98650.38;;;22.03;100.00
70815;BME280;58428;49.478;10.986;2023-07-08T06:47:56;98649.59;;;22.16;100.00
70815;BME280;58428;49.478;10.986;2023-07-08T06:50:22;98641.31;;;22.30;100.00
70815;BME280;58428;49.478;10.986;2023-07-08T06:52:47;98641.28;;;22.40;100.00
70815;BME280;58428;49.478;10.986;2023-07-08T06:55:13;98629.44;;;22.50;100.00
70815;BME280;58428;49.478;10.986;2023-07-08T06:57:39;98622.72;;;22.58;100.00
70815;BME280;58428;49.478;10.986;2023-07-08T07:00:08;98629.00;;;22.69;100.00
70815;BME280;58428;49.478;10.986;2023-07-08T07:02:35;98621.84;;;22.82;100.00
70815;BME280;58428;49.478;10.986;2023-07-08T07:05:02;98620.66;;;22.93;100.00
70815;BME280;58428;49.478;10.986;2023-07-08T07:07:28;98621.00;;;23.05;100.00
70815;BME280;58428;49.478;10.986;2023-07-08T07:09:55;98607.53;;;23.14;100.00
70815;BME280;58428;49.478;10.986;2023-07-08T07:12:24;98619.28;;;23.28;100.00
70815;BME280;58428;49.478;10.986;2023-07-08T07:14:50;98612.50;;;23.40;100.00
70815;BME280;58428;49.478;10.986;2023-07-08T07:17:23;98614.38;;;23.53;100.00
70815;BME280;58428;49.478;10.986;2023-07-08T07:19:51;98615.88;;;23.68;100.00
70815;BME280;58428;49.478;10.986;2023-07-08T07:22:18;98605.13;;;23.80;99.22
70815;BME280;58428;49.478;10.986;2023-07-08T07:24:43;98607.75;;;23.94;99.19
70815;BME280;58428;49.478;10.986;2023-07-08T07:27:10;98610.00;;;24.09;97.95
70815;BME280;58428;49.478;10.986;2023-07-08T07:29:45;98608.66;;;24.24;95.58
70815;BME280;58428;49.478;10.986;2023-07-08T07:32:14;98613.31;;;24.38;95.21
70815;BME280;58428;49.478;10.986;2023-07-08T07:34:40;98607.25;;;24.49;94.71
70815;BME280;58428;49.478;10.986;2023-07-08T07:37:06;98614.22;;;24.64;90.67
70815;BME280;58428;49.478;10.986;2023-07-08T07:39:35;98606.91;;;24.77;89.49
70815;BME280;58428;49.478;10.986;2023-07-08T07:42:02;98613.13;;;24.91;88.57
70815;BME280;58428;49.478;10.986;2023-07-08T07:44:29;98613.75;;;25.02;86.14
70815;BME280;58428;49.478;10.986;2023-07-08T07:46:56;98613.63;;;25.13;85.30
70815;BME280;58428;49.478;10.986;2023-07-08T07:49:22;98611.88;;;25.22;84.42
70815;BME280;58428;49.478;10.986;2023-07-08T07:51:48;98613.69;;;25.35;84.70
70815;BME280;58428;49.478;10.986;2023-07-08T07:54:14;98619.81;;;25.50;81.02
70815;BME280;58428;49.478;10.986;2023-07-08T07:56:39;98620.03;;;25.62;80.33
70815;BME280;58428;49.478;10.986;2023-07-08T07:59:05;98617.47;;;25.74;79.74
70815;BME280;58428;49.478;10.986;2023-07-08T08:01:31;98609.78;;;25.85;79.33
70815;BME280;58428;49.478;10.986;2023-07-08T08:03:57;98617.53;;;25.93;76.50
70815;BME280;58428;49.478;10.986;2023-07-08T08:06:23;98613.03;;;26.03;74.51
70815;BME280;58428;49.478;10.986;2023-07-08T08:08:48;98612.88;;;26.13;75.92
70815;BME280;58428;49.478;10.986;2023-07-08T08:11:15;98614.69;;;26.23;73.27
70815;BME280;58428;49.478;10.986;2023-07-08T08:13:40;98616.13;;;26.31;74.02
70815;BME280;58428;49.478;10.986;2023-07-08T08:16:07;98613.16;;;26.41;73.15
70815;BME280;58428;49.478;10.986;2023-07-08T08:18:33;98610.56;;;26.54;72.61
70815;BME280;58428;49.478;10.986;2023-07-08T08:21:03;98615.13;;;26.64;73.27
70815;BME280;58428;49.478;10.986;2023-07-08T08:23:29;98618.09;;;26.72;72.50
70815;BME280;58428;49.478;10.986;2023-07-08T08:25:56;98606.88;;;26.79;69.55
70815;BME280;58428;49.478;10.986;2023-07-08T08:28:21;98612.28;;;26.86;69.40
70815;BME280;58428;49.478;10.986;2023-07-08T08:30:49;98618.50;;;26.94;68.97
70815;BME280;58428;49.478;10.986;2023-07-08T08:33:17;98621.06;;;27.04;68.43
70815;BME280;58428;49.478;10.986;2023-07-08T08:35:44;98618.19;;;27.07;66.46
70815;BME280;58428;49.478;10.986;2023-07-08T08:38:09;98612.06;;;27.16;64.86
70815;BME280;58428;49.478;10.986;2023-07-08T08:40:36;98614.25;;;27.24;63.37
70815;BME280;58428;49.478;10.986;2023-07-08T08:43:05;98618.88;;;27.31;63.25
70815;BME280;58428;49.478;10.986;2023-07-08T08:45:53;98614.38;;;27.37;59.46
70815;BME280;58428;49.478;10.986;2023-07-08T08:48:21;98617.81;;;27.44;58.75
70815;BME280;58428;49.478;10.986;2023-07-08T08:50:52;98612.88;;;27.51;57.25
70815;BME280;58428;49.478;10.986;2023-07-08T08:53:19;98611.06;;;27.61;57.74
70815;BME280;58428;49.478;10.986;2023-07-08T08:55:50;98616.91;;;27.66;59.16
70815;BME280;58428;49.478;10.986;2023-07-08T09:01:19;98616.03;;;27.85;53.59
70815;BME280;58428;49.478;10.986;2023-07-08T09:06:32;98622.44;;;28.01;51.01
70815;BME280;58428;49.478;10.986;2023-07-08T09:09:09;98611.44;;;28.10;50.06
70815;BME280;58428;49.478;10.986;2023-07-08T09:11:45;98607.63;;;28.20;50.11
70815;BME280;58428;49.478;10.986;2023-07-08T09:14:24;98615.72;;;28.30;45.16
70815;BME280;58428;49.478;10.986;2023-07-08T09:17:11;98610.75;;;28.38;46.30
70815;BME280;58428;49.478;10.986;2023-07-08T09:19:54;98607.06;;;28.41;44.77
70815;BME280;58428;49.478;10.986;2023-07-08T09:25:44;98616.44;;;28.62;40.14
70815;BME280;58428;49.478;10.986;2023-07-08T09:28:13;98611.88;;;28.68;41.86
70815;BME280;58428;49.478;10.986;2023-07-08T09:30:40;98621.53;;;28.80;39.65
70815;BME280;58428;49.478;10.986;2023-07-08T09:33:08;98621.69;;;28.89;39.97
70815;BME280;58428;49.478;10.986;2023-07-08T09:35:41;98632.72;;;28.92;37.77
70815;BME280;58428;49.478;10.986;2023-07-08T09:38:17;98625.91;;;28.93;38.64
70815;BME280;58428;49.478;10.986;2023-07-08T09:40:53;98625.81;;;28.96;37.32
70815;BME280;58428;49.478;10.986;2023-07-08T09:43:27;98622.28;;;29.08;36.39
70815;BME280;58428;49.478;10.986;2023-07-08T09:45:58;98623.88;;;29.09;34.48
70815;BME280;58428;49.478;10.986;2023-07-08T09:48:28;98621.38;;;28.99;35.26
70815;BME280;58428;49.478;10.986;2023-07-08T09:50:56;98623.06;;;29.09;35.83
70815;BME280;58428;49.478;10.986;2023-07-08T09:53:22;98622.91;;;29.16;34.33
70815;BME280;58428;49.478;10.986;2023-07-08T09:55:50;98616.75;;;29.21;35.02
70815;BME280;58428;49.478;10.986;2023-07-08T09:58:24;98617.66;;;29.30;35.47
70815;BME280;58428;49.478;10.986;2023-07-08T10:00:58;98623.16;;;29.33;34.10
70815;BME280;58428;49.478;10.986;2023-07-08T10:03:30;98624.94;;;29.40;35.34
70815;BME280;58428;49.478;10.986;2023-07-08T10:06:04;98617.81;;;29.51;34.85
70815;BME280;58428;49.478;10.986;2023-07-08T10:08:40;98627.19;;;29.57;34.77
70815;BME280;58428;49.478;10.986;2023-07-08T10:11:29;98619.16;;;29.59;34.49
70815;BME280;58428;49.478;10.986;2023-07-08T10:14:05;98614.72;;;29.62;33.39
70815;BME280;58428;49.478;10.986;2023-07-08T10:16:35;98609.47;;;29.64;34.04
70815;BME280;58428;49.478;10.986;2023-07-08T10:19:01;98617.16;;;29.84;34.54
70815;BME280;58428;49.478;10.986;2023-07-08T10:25:19;98617.34;;;30.27;33.71
70815;BME280;58428;49.478;10.986;2023-07-08T10:30:21;98605.91;;;30.46;34.90
70815;BME280;58428;49.478;10.986;2023-07-08T10:35:53;98616.19;;;30.49;33.58
70815;BME280;58428;49.478;10.986;2023-07-08T10:38:43;98606.34;;;30.44;32.95
70815;BME280;58428;49.478;10.986;2023-07-08T10:44:23;98605.25;;;30.42;32.49
70815;BME280;58428;49.478;10.986;2023-07-08T10:53:36;98605.13;;;30.45;32.53
70815;BME280;58428;49.478;10.986;2023-07-08T11:08:01;98588.75;;;30.90;32.22
70815;BME280;58428;49.478;10.986;2023-07-08T11:10:34;98593.94;;;31.00;32.11
70815;BME280;58428;49.478;10.986;2023-07-08T11:13:13;98591.47;;;31.02;31.48
70815;BME280;58428;49.478;10.986;2023-07-08T11:16:10;98584.66;;;31.03;32.27
70815;BME280;58428;49.478;10.986;2023-07-08T11:18:39;98586.53;;;31.06;31.78
70815;BME280;58428;49.478;10.986;2023-07-08T11:27:25;98578.88;;;30.98;31.95
70815;BME280;58428;49.478;10.986;2023-07-08T11:30:22;98580.03;;;31.09;32.43
70815;BME280;58428;49.478;10.986;2023-07-08T11:32:57;98570.59;;;31.15;31.16
70815;BME280;58428;49.478;10.986;2023-07-08T11:35:53;98572.50;;;31.18;31.00
70815;BME280;58428;49.478;10.986;2023-07-08T11:38:24;98571.69;;;31.18;31.23
70815;BME280;58428;49.478;10.986;2023-07-08T11:41:04;98574.53;;;31.27;30.83
70815;BME280;58428;49.478;10.986;2023-07-08T11:46:22;98561.94;;;31.52;31.42
70815;BME280;58428;49.478;10.986;2023-07-08T11:48:55;98564.66;;;31.65;30.85
70815;BME280;58428;49.478;10.986;2023-07-08T11:51:26;98549.75;;;31.77;31.04
70815;BME280;58428;49.478;10.986;2023-07-08T11:59:18;98553.16;;;31.72;31.18
70815;BME280;58428;49.478;10.986;2023-07-08T12:04:59;98541.81;;;31.75;30.92
70815;BME280;58428;49.478;10.986;2023-07-08T12:12:42;98548.72;;;31.83;30.46
70815;BME280;58428;49.478;10.986;2023-07-08T12:17:39;98548.75;;;32.01;29.52
70815;BME280;58428;49.478;10.986;2023-07-08T12:20:12;98544.56;;;32.05;30.09
70815;BME280;58428;49.478;10.986;2023-07-08T12:22:41;98547.06;;;32.12;30.32
70815;BME280;58428;49.478;10.986;2023-07-08T12:25:19;98545.00;;;31.95;28.21
70815;BME280;58428;49.478;10.986;2023-07-08T12:27:45;98542.66;;;31.93;29.49
70815;BME280;58428;49.478;10.986;2023-07-08T12:30:13;98538.63;;;32.03;30.20
70815;BME280;58428;49.478;10.986;2023-07-08T12:32:42;98534.63;;;32.13;29.93
70815;BME280;58428;49.478;10.986;2023-07-08T12:35:27;98548.16;;;32.24;29.40
70815;BME280;58428;49.478;10.986;2023-07-08T12:37:57;98546.28;;;32.21;29.77
70815;BME280;58428;49.478;10.986;2023-07-08T12:40:25;98536.97;;;32.24;29.97
70815;BME280;58428;49.478;10.986;2023-07-08T12:42:51;98543.34;;;32.33;29.96
70815;BME280;58428;49.478;10.986;2023-07-08T12:45:20;98544.19;;;32.42;30.05
70815;BME280;58428;49.478;10.986;2023-07-08T12:47:47;98546.03;;;32.36;30.05
70815;BME280;58428;49.478;10.986;2023-07-08T12:50:17;98544.16;;;32.33;30.20
70815;BME280;58428;49.478;10.986;2023-07-08T12:52:44;98539.63;;;32.27;29.73
70815;BME280;58428;49.478;10.986;2023-07-08T12:55:18;98540.75;;;32.38;30.26
70815;BME280;58428;49.478;10.986;2023-07-08T12:57:48;98539.81;;;32.41;29.47
70815;BME280;58428;49.478;10.986;2023-07-08T13:00:28;98540.88;;;32.44;30.25
70815;BME280;58428;49.478;10.986;2023-07-08T13:03:12;98547.56;;;32.55;30.04
70815;BME280;58428;49.478;10.986;2023-07-08T13:05:39;98553.50;;;32.57;29.45
70815;BME280;58428;49.478;10.986;2023-07-08T13:08:09;98539.19;;;32.46;29.75
70815;BME280;58428;49.478;10.986;2023-07-08T13:10:36;98544.19;;;32.42;30.15
70815;BME280;58428;49.478;10.986;2023-07-08T13:13:05;98542.72;;;32.29;29.77
70815;BME280;58428;49.478;10.986;2023-07-08T13:15:38;98546.97;;;32.33;29.60
70815;BME280;58428;49.478;10.986;2023-07-08T13:18:05;98543.25;;;32.36;29.80
70815;BME280;58428;49.478;10.986;2023-07-08T13:20:33;98538.97;;;32.32;29.44
70815;BME280;58428;49.478;10.986;2023-07-08T13:23:01;98547.72;;;32.34;29.87
70815;BME280;58428;49.478;10.986;2023-07-08T13:25:31;98543.47;;;32.21;29.75
70815;BME280;58428;49.478;10.986;2023-07-08T13:28:00;98541.28;;;31.98;29.20
70815;BME280;58428;49.478;10.986;2023-07-08T13:30:28;98538.81;;;32.00;29.29
70815;BME280;58428;49.478;10.986;2023-07-08T13:32:57;98545.31;;;31.97;28.99
70815;BME280;58428;49.478;10.986;2023-07-08T13:35:38;98541.91;;;32.11;29.80
70815;BME280;58428;49.478;10.986;2023-07-08T13:38:05;98547.22;;;32.18;28.55
70815;BME280;58428;49.478;10.986;2023-07-08T13:40:31;98542.88;;;32.08;28.24
70815;BME280;58428;49.478;10.986;2023-07-08T13:42:57;98544.69;;;31.93;28.78
70815;BME280;58428;49.478;10.986;2023-07-08T13:45:30;98533.66;;;31.98;29.23
70815;BME280;58428;49.478;10.986;2023-07-08T13:48:17;98532.75;;;32.10;29.15
70815;BME280;58428;49.478;10.986;2023-07-08T13:50:55;98536.66;;;32.22;29.34
70815;BME280;58428;49.478;10.986;2023-07-08T13:53:26;98542.25;;;32.30;29.22
70815;BME280;58428;49.478;10.986;2023-07-08T13:56:00;98531.41;;;32.41;29.56
70815;BME280;58428;49.478;10.986;2023-07-08T13:58:29;98534.50;;;32.43;28.66
70815;BME280;58428;49.478;10.986;2023-07-08T14:00:55;98527.38;;;32.42;29.00
70815;BME280;58428;49.478;10.986;2023-07-08T14:03:21;98528.59;;;32.41;28.33
70815;BME280;58428;49.478;10.986;2023-07-08T14:05:47;98531.53;;;32.38;28.88
70815;BME280;58428;49.478;10.986;2023-07-08T14:08:14;98523.31;;;32.43;29.20
70815;BME280;58428;49.478;10.986;2023-07-08T14:10:40;98523.31;;;32.43;28.48